Montgomery, Massachusetts
Current Conditions -  °F | °C
As of 12:53 PM on Sunday 25 Jan 2015 (Local Time) from KBAF Reporting Station
Clear Clear  
Wind Chill: 19°   Ceiling: Unl
Heat Index: 32°   Visibility: 10mi
Dew Point:   Wind: 22mph
Humidity: 37%   Direction: 310°NW
Pressure: 29.71"   Gusts: 30mph
Location:  42.3047°N, 72.879°W
Report Text: KBAF 251753Z 31019G26KT 10SM CLR 00/M13 A2971 RMK AO2 PK WND 31026/1752 SLP066 60000 T00001133 10017 20000 51021
Loading
Personal Weather Stations






























Interactive Weather Map New forecast layout! Learn more

10-Day Weather Forecast

Advertisements
Track Severe Weather on mobile